Time;durP1;ratioP1;P1;durP2;ratioP2;P2;SDS_P1;SDS_P2;PMS_P1;PMS_P2;Temp;Humidity;BMP_temperature;BMP_pressure;BME280_temperature;BME280_humidity;BME280_pressure;Samples;Min_cycle;Max_cycle;Signal;HPM_P1;HPM_P2
2021/12/25 00:00:43;;;;;;;61.30;22.70;;;;;;;;;;5062328;28;20400;-84
2021/12/25 00:03:08;;;;;;;51.27;21.33;;;;;;;;;;5063213;28;20473;-84
2021/12/25 00:05:34;;;;;;;52.63;21.97;;;;;;;;;;5065352;28;20025;-84
2021/12/25 00:07:59;;;;;;;61.90;23.17;;;;;;;;;;5056643;28;20108;-84
2021/12/25 00:10:24;;;;;;;67.33;23.73;;;;;;;;;;5057179;28;20027;-83
2021/12/25 00:12:52;;;;;;;49.83;21.57;;;;;;;;;;5065759;28;20468;-84
2021/12/25 00:15:18;;;;;;;51.80;21.10;;;;;;;;;;5054473;28;20024;-84
2021/12/25 00:17:43;;;;;;;52.60;21.30;;;;;;;;;;5061600;28;20602;-83
2021/12/25 00:20:08;;;;;;;52.93;19.63;;;;;;;;;;5061646;28;20162;-84
2021/12/25 00:22:34;;;;;;;44.30;19.10;;;;;;;;;;5057550;28;20026;-84
2021/12/25 00:24:59;;;;;;;48.90;19.67;;;;;;;;;;5057256;28;20119;-85
2021/12/25 00:34:43;;;;;;;55.00;21.17;;;;;;;;;;5059740;28;20028;-84
2021/12/25 00:37:09;;;;;;;54.57;19.87;;;;;;;;;;5064710;28;20036;-84
2021/12/25 00:39:34;;;;;;;46.97;20.23;;;;;;;;;;5065329;28;20031;-84
2021/12/25 00:42:01;;;;;;;52.90;20.23;;;;;;;;;;5057735;28;20099;-85
2021/12/25 00:44:27;;;;;;;46.00;17.83;;;;;;;;;;5063358;28;20028;-84
2021/12/25 00:46:52;;;;;;;43.77;18.00;;;;;;;;;;5064933;28;20020;-84
2021/12/25 00:49:17;;;;;;;45.42;17.63;;;;;;;;;;5065884;28;20368;-85
2021/12/25 00:51:43;;;;;;;45.78;19.23;;;;;;;;;;5060776;28;20025;-84
2021/12/25 00:54:09;;;;;;;44.20;18.40;;;;;;;;;;5061406;28;20384;-84
2021/12/25 00:56:34;;;;;;;45.65;18.25;;;;;;;;;;5062525;28;20559;-85
2021/12/25 00:58:59;;;;;;;48.35;19.52;;;;;;;;;;5064608;28;20103;-84
2021/12/25 01:01:25;;;;;;;46.15;19.08;;;;;;;;;;5055752;28;20025;-85
2021/12/25 01:03:50;;;;;;;46.20;18.85;;;;;;;;;;5052999;28;20060;-85
2021/12/25 01:06:16;;;;;;;44.50;18.27;;;;;;;;;;5060590;28;20048;-84
2021/12/25 01:08:41;;;;;;;44.42;18.70;;;;;;;;;;5051350;28;20456;-85
2021/12/25 01:11:06;;;;;;;44.38;18.75;;;;;;;;;;5059008;28;20052;-85
2021/12/25 01:13:37;;;;;;;51.53;20.05;;;;;;;;;;5060825;28;20029;-84
2021/12/25 01:18:59;;;;;;;46.03;18.98;;;;;;;;;;5065801;28;20037;-85
2021/12/25 01:28:27;;;;;;;46.83;18.35;;;;;;;;;;5075374;28;20040;-85
2021/12/25 01:33:03;;;;;;;33.42;14.50;;;;;;;;;;5062411;28;20033;-85
2021/12/25 01:35:46;;;;;;;32.17;13.30;;;;;;;;;;5064912;28;20383;-85
2021/12/25 01:39:19;;;;;;;23.15;9.98;;;;;;;;;;5046365;28;20465;-84
2021/12/25 01:41:30;;;;;;;17.17;8.35;;;;;;;;;;5052157;28;20611;-85
2021/12/25 01:49:26;;;;;;;11.27;6.00;;;;;;;;;;5047787;28;20651;-85
2021/12/25 01:51:51;;;;;;;13.93;6.47;;;;;;;;;;5059463;28;20116;-86
2021/12/25 01:54:17;;;;;;;11.15;6.50;;;;;;;;;;5063270;28;20412;-85
2021/12/25 01:56:42;;;;;;;12.25;6.80;;;;;;;;;;5055940;28;20033;-85
2021/12/25 01:59:08;;;;;;;13.57;5.38;;;;;;;;;;5085404;28;20175;-86
2021/12/25 02:01:33;;;;;;;10.55;5.00;;;;;;;;;;5084487;28;20029;-85
2021/12/25 02:03:58;;;;;;;12.15;6.28;;;;;;;;;;5059657;28;20028;-85
2021/12/25 02:06:24;;;;;;;13.80;6.03;;;;;;;;;;5084639;28;20111;-85
2021/12/25 02:08:49;;;;;;;9.30;5.30;;;;;;;;;;5059947;28;20025;-84
2021/12/25 02:11:14;;;;;;;14.25;6.75;;;;;;;;;;5051462;28;20391;-85
2021/12/25 02:13:41;;;;;;;11.93;6.30;;;;;;;;;;5059842;28;20512;-85
2021/12/25 02:16:12;;;;;;;14.05;6.72;;;;;;;;;;5059178;28;20067;-85
2021/12/25 02:19:04;;;;;;;14.18;7.05;;;;;;;;;;5084573;28;20036;-85
2021/12/25 02:21:37;;;;;;;16.98;6.72;;;;;;;;;;5076990;28;20033;-85
2021/12/25 02:24:04;;;;;;;17.35;7.82;;;;;;;;;;5084412;28;20037;-85
2021/12/25 02:26:29;;;;;;;16.92;8.45;;;;;;;;;;5043849;28;20128;-85
2021/12/25 02:28:55;;;;;;;22.42;8.13;;;;;;;;;;5091404;28;20115;-85
2021/12/25 02:31:21;;;;;;;14.80;7.75;;;;;;;;;;5061905;28;20024;-85
2021/12/25 02:33:46;;;;;;;16.35;7.63;;;;;;;;;;5062591;28;20031;-85
2021/12/25 02:36:12;;;;;;;19.42;8.48;;;;;;;;;;5061802;28;20044;-85
2021/12/25 02:38:38;;;;;;;21.45;10.32;;;;;;;;;;5058928;28;20083;-85
2021/12/25 02:41:03;;;;;;;19.60;8.38;;;;;;;;;;5059094;28;20024;-85
2021/12/25 02:43:29;;;;;;;22.25;9.88;;;;;;;;;;5060966;28;20037;-85
2021/12/25 02:45:55;;;;;;;21.85;10.48;;;;;;;;;;5062325;28;20024;-85
2021/12/25 02:48:21;;;;;;;18.83;9.85;;;;;;;;;;5053192;28;20025;-85
2021/12/25 02:50:47;;;;;;;21.15;10.20;;;;;;;;;;5062813;28;20033;-85
2021/12/25 02:53:12;;;;;;;23.35;10.05;;;;;;;;;;5062631;28;20028;-85
2021/12/25 02:55:38;;;;;;;22.77;10.18;;;;;;;;;;5059109;28;20147;-85
2021/12/25 02:58:04;;;;;;;16.95;8.70;;;;;;;;;;5053664;28;20573;-85
2021/12/25 03:00:30;;;;;;;19.33;10.10;;;;;;;;;;5051133;28;20029;-86
2021/12/25 03:02:56;;;;;;;20.50;10.85;;;;;;;;;;5059292;28;20033;-85
2021/12/25 03:05:21;;;;;;;21.52;9.30;;;;;;;;;;5060219;28;20017;-84
2021/12/25 03:07:46;;;;;;;20.23;9.88;;;;;;;;;;5063709;28;20071;-86
2021/12/25 03:10:13;;;;;;;21.80;9.40;;;;;;;;;;5088020;28;20449;-84
2021/12/25 03:12:49;;;;;;;19.17;8.98;;;;;;;;;;5064688;28;20029;-86
2021/12/25 03:15:18;;;;;;;19.63;10.20;;;;;;;;;;5060529;28;20025;-84
2021/12/25 03:17:44;;;;;;;19.92;9.23;;;;;;;;;;5064088;28;20446;-86
2021/12/25 03:20:10;;;;;;;21.85;10.52;;;;;;;;;;5088087;28;20025;-85
2021/12/25 03:22:37;;;;;;;19.65;9.27;;;;;;;;;;5066806;28;20032;-85
2021/12/25 03:25:04;;;;;;;19.48;9.43;;;;;;;;;;5086466;28;20021;-86
2021/12/25 03:27:29;;;;;;;19.92;10.23;;;;;;;;;;5087894;28;20386;-85
2021/12/25 03:29:55;;;;;;;18.35;8.70;;;;;;;;;;5063060;28;20039;-85
2021/12/25 03:32:20;;;;;;;17.30;9.02;;;;;;;;;;5096578;28;20021;-85
2021/12/25 03:34:45;;;;;;;22.42;10.57;;;;;;;;;;5087849;28;20032;-85
2021/12/25 03:37:10;;;;;;;16.40;8.43;;;;;;;;;;5062656;28;20365;-86
2021/12/25 03:39:36;;;;;;;18.88;9.55;;;;;;;;;;5055941;28;20098;-85
2021/12/25 03:42:01;;;;;;;20.05;9.43;;;;;;;;;;5089735;28;20499;-85
2021/12/25 03:44:28;;;;;;;16.35;8.25;;;;;;;;;;5065382;28;20020;-85
2021/12/25 03:46:54;;;;;;;21.25;9.85;;;;;;;;;;5064495;28;20099;-85
2021/12/25 03:49:33;;;;;;;22.45;10.90;;;;;;;;;;5062091;28;20044;-85
2021/12/25 03:57:43;;;;;;;16.05;8.07;;;;;;;;;;5049414;28;20503;-85
2021/12/25 04:00:09;;;;;;;21.95;11.20;;;;;;;;;;5087172;28;20028;-85
2021/12/25 04:02:42;;;;;;;20.40;10.85;;;;;;;;;;5059531;28;20020;-85
2021/12/25 04:05:14;;;;;;;20.60;10.05;;;;;;;;;;5063536;28;20024;-85
2021/12/25 04:10:05;;;;;;;19.20;10.07;;;;;;;;;;5062564;28;20240;-85
2021/12/25 04:12:30;;;;;;;18.23;8.43;;;;;;;;;;5062375;28;20027;-85
2021/12/25 04:14:55;;;;;;;15.45;7.88;;;;;;;;;;5086756;28;20482;-85
2021/12/25 04:17:20;;;;;;;18.38;9.65;;;;;;;;;;5087837;28;20740;-85
2021/12/25 04:19:45;;;;;;;23.70;10.70;;;;;;;;;;5065569;28;20115;-85
2021/12/25 04:22:18;;;;;;;19.48;9.38;;;;;;;;;;5057401;28;20071;-84
2021/12/25 04:24:45;;;;;;;;;;;;;;;;;;5062395;28;20094;-85
2021/12/25 04:27:14;;;;;;;17.63;7.97;;;;;;;;;;5053934;28;19999;-86
2021/12/25 05:01:58;;;;;;;11.98;6.80;;;;;;;;;;5061676;28;20036;-85
2021/12/25 05:04:29;;;;;;;13.65;7.05;;;;;;;;;;5062428;28;20029;-85
2021/12/25 05:06:54;;;;;;;12.15;7.50;;;;;;;;;;5052841;28;20025;-85
2021/12/25 05:09:20;;;;;;;14.63;7.93;;;;;;;;;;5085980;28;20024;-85
2021/12/25 05:11:45;;;;;;;11.52;6.85;;;;;;;;;;5060886;28;20032;-84
2021/12/25 05:14:10;;;;;;;12.48;7.18;;;;;;;;;;5085768;28;20025;-85
2021/12/25 05:16:35;;;;;;;13.05;7.28;;;;;;;;;;5085506;28;20035;-85
2021/12/25 05:19:01;;;;;;;10.25;5.90;;;;;;;;;;5085724;28;20025;-86
2021/12/25 05:21:26;;;;;;;10.90;5.90;;;;;;;;;;5062057;28;20068;-85
2021/12/25 05:23:52;;;;;;;11.88;6.80;;;;;;;;;;5052211;28;20036;-85
2021/12/25 05:26:17;;;;;;;10.57;5.68;;;;;;;;;;5077863;28;20457;-85
2021/12/25 05:28:45;;;;;;;8.85;3.80;;;;;;;;;;5085060;28;20025;-85
2021/12/25 05:31:12;;;;;;;9.15;5.13;;;;;;;;;;5060710;28;20017;-85
2021/12/25 05:33:38;;;;;;;10.68;5.55;;;;;;;;;;5060193;28;20033;-86
2021/12/25 05:36:04;;;;;;;14.27;5.70;;;;;;;;;;5087901;28;20380;-85
2021/12/25 05:38:29;;;;;;;10.43;6.00;;;;;;;;;;5065395;28;20032;-85
2021/12/25 05:40:54;;;;;;;9.15;4.85;;;;;;;;;;5053733;28;20108;-85
2021/12/25 05:43:20;;;;;;;10.40;5.68;;;;;;;;;;5060298;28;20491;-85
2021/12/25 05:45:45;;;;;;;7.15;3.47;;;;;;;;;;5085036;28;20028;-85
2021/12/25 05:48:11;;;;;;;9.63;5.95;;;;;;;;;;5057014;28;20475;-85
2021/12/25 05:50:36;;;;;;;11.77;5.82;;;;;;;;;;5064257;28;20025;-84
2021/12/25 05:53:01;;;;;;;11.48;6.65;;;;;;;;;;5059688;28;20492;-85
2021/12/25 05:55:27;;;;;;;12.27;6.47;;;;;;;;;;5093584;28;20029;-85
2021/12/25 05:57:52;;;;;;;14.35;6.22;;;;;;;;;;5084891;28;20464;-85
2021/12/25 06:00:18;;;;;;;11.35;6.22;;;;;;;;;;5064501;28;20024;-85
2021/12/25 06:02:44;;;;;;;13.27;7.47;;;;;;;;;;5063219;28;20074;-85
2021/12/25 06:05:10;;;;;;;14.77;7.75;;;;;;;;;;5052634;28;20423;-85
2021/12/25 06:07:35;;;;;;;11.88;6.35;;;;;;;;;;5052904;28;20078;-85
2021/12/25 06:10:00;;;;;;;11.48;6.13;;;;;;;;;;5084923;28;20066;-85
2021/12/25 06:12:26;;;;;;;9.68;5.57;;;;;;;;;;5063458;28;20075;-85
2021/12/25 06:14:53;;;;;;;11.48;6.35;;;;;;;;;;5055850;28;20044;-85
2021/12/25 06:17:18;;;;;;;11.45;5.75;;;;;;;;;;5092653;28;20033;-84
2021/12/25 06:19:44;;;;;;;13.23;6.82;;;;;;;;;;5084545;28;20467;-85
2021/12/25 06:22:09;;;;;;;13.60;7.55;;;;;;;;;;5052618;28;20495;-85
2021/12/25 06:24:34;;;;;;;13.30;7.68;;;;;;;;;;5058694;28;20032;-85
2021/12/25 06:27:00;;;;;;;16.45;8.20;;;;;;;;;;5084522;28;20025;-84
2021/12/25 06:29:25;;;;;;;11.70;6.28;;;;;;;;;;5084284;28;20048;-85
2021/12/25 06:31:52;;;;;;;10.98;6.60;;;;;;;;;;5059620;28;20021;-84
2021/12/25 06:34:18;;;;;;;12.63;7.93;;;;;;;;;;5059262;28;20036;-85
2021/12/25 06:36:43;;;;;;;13.45;7.18;;;;;;;;;;5084485;28;20033;-85
2021/12/25 06:39:13;;;;;;;14.25;7.30;;;;;;;;;;5060455;28;20020;-85
2021/12/25 06:41:38;;;;;;;9.30;5.32;;;;;;;;;;5065813;28;20052;-85
2021/12/25 06:44:04;;;;;;;11.25;6.57;;;;;;;;;;5060557;28;20041;-84
2021/12/25 06:46:29;;;;;;;11.27;7.38;;;;;;;;;;5058899;28;20021;-85
2021/12/25 06:48:55;;;;;;;14.55;8.73;;;;;;;;;;5084304;28;20543;-84
2021/12/25 06:51:20;;;;;;;15.00;8.52;;;;;;;;;;5083870;28;20013;-84
2021/12/25 06:53:46;;;;;;;10.57;5.93;;;;;;;;;;5058598;28;20495;-84
2021/12/25 06:56:11;;;;;;;12.27;6.68;;;;;;;;;;5084045;28;20066;-85
2021/12/25 06:58:36;;;;;;;18.05;7.22;;;;;;;;;;5053103;28;20029;-84
2021/12/25 07:01:02;;;;;;;12.57;7.38;;;;;;;;;;5056921;28;20052;-85
2021/12/25 07:03:27;;;;;;;11.98;7.30;;;;;;;;;;5061180;28;20100;-85
2021/12/25 07:05:53;;;;;;;15.48;8.57;;;;;;;;;;5058237;28;20017;-85
2021/12/25 07:08:18;;;;;;;14.00;8.20;;;;;;;;;;5084086;28;20427;-85
2021/12/25 07:10:46;;;;;;;10.02;5.82;;;;;;;;;;5092131;28;20021;-84
2021/12/25 07:13:16;;;;;;;12.32;7.53;;;;;;;;;;5083836;28;20025;-85
2021/12/25 07:15:42;;;;;;;11.68;6.68;;;;;;;;;;5084008;28;20048;-85
2021/12/25 07:18:07;;;;;;;13.05;7.95;;;;;;;;;;5056624;28;20020;-84
2021/12/25 07:20:32;;;;;;;13.43;7.22;;;;;;;;;;5061866;28;20507;-85
2021/12/25 07:22:58;;;;;;;11.57;6.47;;;;;;;;;;5059828;28;20017;-85
2021/12/25 07:25:24;;;;;;;16.20;9.38;;;;;;;;;;5059966;28;20017;-84
2021/12/25 07:27:49;;;;;;;13.50;8.45;;;;;;;;;;5060959;28;20025;-85
2021/12/25 07:30:15;;;;;;;13.13;8.80;;;;;;;;;;5059690;28;20039;-85
2021/12/25 07:32:40;;;;;;;11.23;6.70;;;;;;;;;;5052490;28;20025;-85
2021/12/25 07:35:05;;;;;;;11.98;7.75;;;;;;;;;;5083372;28;20027;-85
2021/12/25 07:37:31;;;;;;;12.30;7.80;;;;;;;;;;5057325;28;20104;-84
2021/12/25 07:39:57;;;;;;;11.68;6.78;;;;;;;;;;5051114;28;20086;-84
2021/12/25 07:42:22;;;;;;;12.98;7.75;;;;;;;;;;5052184;28;20063;-85
2021/12/25 07:44:53;;;;;;;13.90;7.95;;;;;;;;;;5045603;28;20465;-84
2021/12/25 07:47:21;;;;;;;11.80;7.40;;;;;;;;;;5050601;28;20403;-84
2021/12/25 07:49:46;;;;;;;12.40;7.00;;;;;;;;;;5048553;28;20022;-84
2021/12/25 07:52:12;;;;;;;12.73;7.05;;;;;;;;;;5055967;28;20016;-84
2021/12/25 07:54:37;;;;;;;10.73;5.70;;;;;;;;;;5059036;28;20017;-84
2021/12/25 07:57:03;;;;;;;12.02;6.80;;;;;;;;;;5056218;28;20031;-85
2021/12/25 07:59:28;;;;;;;10.98;6.80;;;;;;;;;;5059105;28;20117;-84
2021/12/25 08:01:53;;;;;;;13.05;8.20;;;;;;;;;;5052986;28;20491;-85
2021/12/25 08:04:19;;;;;;;13.70;8.25;;;;;;;;;;5083065;28;20464;-85
2021/12/25 08:06:44;;;;;;;13.75;8.52;;;;;;;;;;5086784;28;20047;-84
2021/12/25 08:09:09;;;;;;;13.15;8.45;;;;;;;;;;5083643;28;20021;-85
2021/12/25 08:11:34;;;;;;;15.82;7.75;;;;;;;;;;5081186;28;20032;-84
2021/12/25 08:14:00;;;;;;;12.90;6.68;;;;;;;;;;5052154;28;20036;-84
2021/12/25 08:16:25;;;;;;;13.15;8.27;;;;;;;;;;5057386;28;20412;-85
2021/12/25 08:18:50;;;;;;;16.92;10.02;;;;;;;;;;5056164;28;20023;-84
2021/12/25 08:21:15;;;;;;;18.75;9.95;;;;;;;;;;5051726;28;20112;-84
2021/12/25 08:23:41;;;;;;;10.98;6.03;;;;;;;;;;5056973;28;20163;-84
2021/12/25 08:26:06;;;;;;;13.98;8.20;;;;;;;;;;5062634;28;20048;-85
2021/12/25 08:28:32;;;;;;;14.73;9.27;;;;;;;;;;5086563;28;20385;-84
2021/12/25 08:30:57;;;;;;;15.13;8.73;;;;;;;;;;5054870;28;20074;-84
2021/12/25 08:33:22;;;;;;;13.10;7.18;;;;;;;;;;5048484;28;20020;-84
2021/12/25 08:35:48;;;;;;;17.55;9.98;;;;;;;;;;5082633;28;20024;-86
2021/12/25 08:38:14;;;;;;;17.27;9.82;;;;;;;;;;5051359;28;20035;-86
2021/12/25 08:40:40;;;;;;;17.23;10.35;;;;;;;;;;5082802;28;20565;-85
2021/12/25 08:43:06;;;;;;;16.27;9.80;;;;;;;;;;5053306;28;20029;-86
2021/12/25 08:45:44;;;;;;;17.55;10.25;;;;;;;;;;5052774;28;20111;-86
2021/12/25 08:48:12;;;;;;;17.05;9.13;;;;;;;;;;5052000;28;20040;-85
2021/12/25 08:50:37;;;;;;;17.60;10.00;;;;;;;;;;5053319;28;20784;-85
2021/12/25 08:53:02;;;;;;;19.08;11.45;;;;;;;;;;5053271;28;20032;-86
2021/12/25 08:55:28;;;;;;;17.75;10.30;;;;;;;;;;5052779;28;20021;-85
2021/12/25 08:57:53;;;;;;;17.95;10.82;;;;;;;;;;5052680;28;20025;-84
2021/12/25 09:00:19;;;;;;;18.25;10.38;;;;;;;;;;5052718;28;20099;-84
2021/12/25 09:02:48;;;;;;;13.65;8.15;;;;;;;;;;5056663;28;20021;-83
2021/12/25 09:05:14;;;;;;;21.25;12.23;;;;;;;;;;5053441;28;20120;-83
2021/12/25 09:07:39;;;;;;;22.10;11.98;;;;;;;;;;5051463;28;20132;-83
2021/12/25 09:10:04;;;;;;;20.00;12.02;;;;;;;;;;5066484;28;20008;-82
2021/12/25 09:12:32;;;;;;;15.68;8.60;;;;;;;;;;5052748;28;20427;-83
2021/12/25 09:14:57;;;;;;;17.77;10.35;;;;;;;;;;5048872;28;20028;-83
2021/12/25 09:17:22;;;;;;;12.48;7.10;;;;;;;;;;5047553;28;20021;-84
2021/12/25 09:19:47;;;;;;;17.88;10.23;;;;;;;;;;5056724;28;20077;-83
2021/12/25 09:22:13;;;;;;;15.13;9.15;;;;;;;;;;5051891;28;20017;-83
2021/12/25 09:24:38;;;;;;;16.55;9.50;;;;;;;;;;5083810;28;20027;-83
2021/12/25 09:27:05;;;;;;;15.68;9.10;;;;;;;;;;5082175;28;20100;-83
2021/12/25 09:29:30;;;;;;;20.88;11.32;;;;;;;;;;5085112;28;20670;-83
2021/12/25 09:31:55;;;;;;;19.23;11.30;;;;;;;;;;5057792;28;20032;-82
2021/12/25 09:34:20;;;;;;;17.30;9.85;;;;;;;;;;5050746;28;20033;-83
2021/12/25 09:36:45;;;;;;;15.40;9.38;;;;;;;;;;5054775;28;20028;-83
2021/12/25 09:39:11;;;;;;;18.83;11.00;;;;;;;;;;5045480;28;20024;-83
2021/12/25 09:41:37;;;;;;;17.63;9.48;;;;;;;;;;5084222;28;20040;-83
2021/12/25 09:44:04;;;;;;;17.65;9.57;;;;;;;;;;5050879;28;20052;-83
2021/12/25 09:46:29;;;;;;;18.52;10.80;;;;;;;;;;5046532;28;20028;-83
2021/12/25 09:48:55;;;;;;;15.50;8.50;;;;;;;;;;5057475;28;20392;-83
2021/12/25 09:51:21;;;;;;;17.65;10.50;;;;;;;;;;5052677;28;20020;-83
2021/12/25 09:54:01;;;;;;;17.75;10.45;;;;;;;;;;5053500;28;20029;-83
2021/12/25 09:56:27;;;;;;;15.10;8.88;;;;;;;;;;5050339;28;20037;-84
2021/12/25 09:58:52;;;;;;;17.48;10.00;;;;;;;;;;5056161;28;20360;-83
2021/12/25 10:01:31;;;;;;;17.17;10.18;;;;;;;;;;5052965;28;20032;-84
2021/12/25 10:03:56;;;;;;;18.80;10.35;;;;;;;;;;5052016;28;20017;-83
2021/12/25 10:06:29;;;;;;;17.77;11.57;;;;;;;;;;5079394;28;20017;-84
2021/12/25 10:08:55;;;;;;;18.10;10.90;;;;;;;;;;5060849;28;20112;-83
2021/12/25 10:11:20;;;;;;;19.63;11.13;;;;;;;;;;5050447;28;20108;-83
2021/12/25 10:13:46;;;;;;;20.48;11.45;;;;;;;;;;5050636;28;20032;-83
2021/12/25 10:16:17;;;;;;;18.20;10.23;;;;;;;;;;5049542;28;20364;-83
2021/12/25 10:18:43;;;;;;;18.00;10.90;;;;;;;;;;5054832;28;20036;-84
2021/12/25 10:21:19;;;;;;;16.52;10.07;;;;;;;;;;5059690;28;20024;-84
2021/12/25 10:23:44;;;;;;;17.33;10.43;;;;;;;;;;5061894;28;20073;-84
2021/12/25 10:26:10;;;;;;;17.77;11.68;;;;;;;;;;5049531;28;20024;-84
2021/12/25 10:28:36;;;;;;;15.65;9.50;;;;;;;;;;5055623;28;20025;-84
2021/12/25 10:31:03;;;;;;;17.75;10.57;;;;;;;;;;5054369;28;20024;-84
2021/12/25 10:33:42;;;;;;;18.92;11.45;;;;;;;;;;5058227;28;20028;-84
2021/12/25 10:36:10;;;;;;;19.75;11.27;;;;;;;;;;5056420;28;20446;-84
2021/12/25 10:38:36;;;;;;;19.38;11.32;;;;;;;;;;5058005;28;20500;-84
2021/12/25 10:41:19;;;;;;;16.23;8.63;;;;;;;;;;5054127;28;20032;-85
2021/12/25 10:43:47;;;;;;;20.73;11.77;;;;;;;;;;5050361;28;20028;-84
2021/12/25 10:46:12;;;;;;;20.00;11.80;;;;;;;;;;5051032;28;20020;-83
2021/12/25 10:48:37;;;;;;;15.52;8.18;;;;;;;;;;5050855;28;20016;-84
2021/12/25 10:51:03;;;;;;;19.38;11.27;;;;;;;;;;5058828;28;20040;-84
2021/12/25 10:53:30;;;;;;;20.67;12.20;;;;;;;;;;5050242;28;20025;-84
2021/12/25 10:56:24;;;;;;;19.33;11.57;;;;;;;;;;5049644;28;20020;-84
2021/12/25 10:59:01;;;;;;;21.50;12.90;;;;;;;;;;5045703;28;20080;-83
2021/12/25 11:01:26;;;;;;;19.17;11.77;;;;;;;;;;5059011;28;20036;-84
2021/12/25 11:03:52;;;;;;;21.90;13.52;;;;;;;;;;5051734;28;20485;-84
2021/12/25 11:06:18;;;;;;;17.83;10.40;;;;;;;;;;5056081;28;20525;-84
2021/12/25 11:08:44;;;;;;;19.35;11.23;;;;;;;;;;5047940;28;20148;-85
2021/12/25 11:11:11;;;;;;;19.02;11.15;;;;;;;;;;5053611;28;20108;-84
2021/12/25 11:13:40;;;;;;;21.02;12.07;;;;;;;;;;5049907;28;20118;-83
2021/12/25 11:16:13;;;;;;;20.92;12.20;;;;;;;;;;5041946;28;20025;-83
2021/12/25 11:18:49;;;;;;;22.52;12.43;;;;;;;;;;5049046;28;20029;-85
2021/12/25 11:21:14;;;;;;;25.17;12.95;;;;;;;;;;5040250;28;20759;-85
2021/12/25 11:23:40;;;;;;;25.20;15.18;;;;;;;;;;5054788;28;20025;-85
2021/12/25 11:26:05;;;;;;;26.15;15.05;;;;;;;;;;5055637;28;20130;-84
2021/12/25 11:28:31;;;;;;;18.77;10.10;;;;;;;;;;5059581;28;20108;-85
2021/12/25 11:30:56;;;;;;;21.58;12.48;;;;;;;;;;5056929;28;20017;-84
2021/12/25 11:33:21;;;;;;;27.23;13.93;;;;;;;;;;5056881;28;20033;-85
2021/12/25 11:35:47;;;;;;;28.10;14.38;;;;;;;;;;5066813;28;20074;-84
2021/12/25 11:38:13;;;;;;;25.23;14.00;;;;;;;;;;5061032;28;20048;-85
2021/12/25 11:40:43;;;;;;;23.42;13.18;;;;;;;;;;5059992;28;20024;-85
2021/12/25 11:43:08;;;;;;;24.38;13.80;;;;;;;;;;5049817;28;20637;-84
2021/12/25 11:45:39;;;;;;;21.42;12.63;;;;;;;;;;5056915;28;20040;-85
2021/12/25 11:48:31;;;;;;;22.33;12.90;;;;;;;;;;5039556;28;20099;-85
2021/12/25 11:50:56;;;;;;;26.33;15.63;;;;;;;;;;5080230;28;20067;-85
2021/12/25 11:53:31;;;;;;;25.75;15.27;;;;;;;;;;5056587;28;20040;-84
2021/12/25 11:58:46;;;;;;;21.25;10.77;;;;;;;;;;5062653;28;20029;-85
2021/12/25 12:01:16;;;;;;;28.50;16.67;;;;;;;;;;5063737;28;20024;-85
2021/12/25 12:03:46;;;;;;;21.67;12.88;;;;;;;;;;5056012;28;20021;-85
2021/12/25 12:06:13;;;;;;;22.17;12.70;;;;;;;;;;5053115;28;20021;-84
2021/12/25 12:08:54;;;;;;;22.45;11.07;;;;;;;;;;5055837;28;20020;-84
2021/12/25 12:11:20;;;;;;;23.85;14.27;;;;;;;;;;5050548;28;20033;-85
2021/12/25 12:13:45;;;;;;;26.13;14.95;;;;;;;;;;5059804;28;20362;-85
2021/12/25 12:16:10;;;;;;;17.70;9.07;;;;;;;;;;5087250;28;20063;-84
2021/12/25 12:18:37;;;;;;;23.77;13.82;;;;;;;;;;5061963;28;20036;-85
2021/12/25 12:21:12;;;;;;;20.60;12.35;;;;;;;;;;5056392;28;20025;-84
2021/12/25 12:26:41;;;;;;;28.90;13.73;;;;;;;;;;5060339;28;20036;-84
2021/12/25 12:29:06;;;;;;;27.83;14.30;;;;;;;;;;5087063;28;20135;-83
2021/12/25 12:31:49;;;;;;;26.98;16.10;;;;;;;;;;5054329;28;20163;-83
2021/12/25 12:34:30;;;;;;;23.95;14.60;;;;;;;;;;5053127;28;20151;-83
2021/12/25 12:37:18;;;;;;;26.40;15.90;;;;;;;;;;5065342;28;20024;-83
2021/12/25 12:40:05;;;;;;;23.57;13.57;;;;;;;;;;5044461;28;20033;-83
2021/12/25 12:42:43;;;;;;;18.90;9.97;;;;;;;;;;5055385;28;20029;-83
2021/12/25 12:45:10;;;;;;;25.90;14.00;;;;;;;;;;5047906;28;20029;-84
2021/12/25 12:47:35;;;;;;;27.42;15.05;;;;;;;;;;5085109;28;20005;-83
2021/12/25 12:50:01;;;;;;;23.08;13.38;;;;;;;;;;5064877;28;20013;-83
2021/12/25 12:52:26;;;;;;;24.02;14.90;;;;;;;;;;5084533;28;20137;-85
2021/12/25 12:54:51;;;;;;;26.20;15.32;;;;;;;;;;5054181;28;20024;-84
2021/12/25 12:57:36;;;;;;;29.30;15.15;;;;;;;;;;5058226;28;20534;-84
2021/12/25 13:00:11;;;;;;;24.63;14.35;;;;;;;;;;5060592;28;20054;-83
2021/12/25 13:02:42;;;;;;;22.02;12.90;;;;;;;;;;5051629;28;20025;-84
2021/12/25 13:05:07;;;;;;;21.05;11.60;;;;;;;;;;5058128;28;20035;-83
2021/12/25 13:07:34;;;;;;;24.77;14.73;;;;;;;;;;5054892;28;20021;-84
2021/12/25 13:10:20;;;;;;;22.33;13.88;;;;;;;;;;5056836;28;20028;-83
2021/12/25 13:12:48;;;;;;;23.75;14.27;;;;;;;;;;5053609;28;20017;-83
2021/12/25 13:15:16;;;;;;;24.33;15.02;;;;;;;;;;5054104;28;20102;-85
2021/12/25 13:17:46;;;;;;;24.02;13.88;;;;;;;;;;5055625;28;20051;-84
2021/12/25 13:20:11;;;;;;;24.63;13.75;;;;;;;;;;5058608;28;20032;-82
2021/12/25 13:22:37;;;;;;;24.25;14.73;;;;;;;;;;5065720;28;20056;-82
2021/12/25 13:25:07;;;;;;;20.67;11.57;;;;;;;;;;5061410;28;20479;-83
2021/12/25 13:27:33;;;;;;;23.08;12.60;;;;;;;;;;5058372;28;20025;-84
2021/12/25 13:30:06;;;;;;;25.83;12.80;;;;;;;;;;5052269;28;20472;-84
2021/12/25 13:32:31;;;;;;;21.10;12.77;;;;;;;;;;5065605;28;20019;-85
2021/12/25 13:34:56;;;;;;;23.73;13.17;;;;;;;;;;5050496;28;20017;-82
2021/12/25 13:37:22;;;;;;;22.73;13.27;;;;;;;;;;5053332;28;20060;-83
2021/12/25 13:39:47;;;;;;;21.70;13.50;;;;;;;;;;5061667;28;20047;-83
2021/12/25 13:42:13;;;;;;;23.27;13.33;;;;;;;;;;5058176;28;20013;-83
2021/12/25 13:44:44;;;;;;;21.93;12.27;;;;;;;;;;5085172;28;20060;-83
2021/12/25 13:47:12;;;;;;;21.53;12.93;;;;;;;;;;5058232;28;20476;-84
2021/12/25 13:49:45;;;;;;;22.33;13.00;;;;;;;;;;5059632;28;20021;-84
2021/12/25 13:52:36;;;;;;;18.30;11.90;;;;;;;;;;5083380;28;20013;-83
2021/12/25 13:55:12;;;;;;;21.17;13.10;;;;;;;;;;5059408;28;20108;-82
2021/12/25 13:57:40;;;;;;;21.03;12.53;;;;;;;;;;5047790;28;20075;-84
2021/12/25 14:00:11;;;;;;;20.07;11.80;;;;;;;;;;5059234;28;20013;-82
2021/12/25 14:02:37;;;;;;;19.50;11.87;;;;;;;;;;5044506;28;20825;-83
2021/12/25 14:05:05;;;;;;;20.17;11.13;;;;;;;;;;5058991;28;20116;-83
2021/12/25 14:07:30;;;;;;;17.13;10.97;;;;;;;;;;5052109;28;20025;-84
2021/12/25 14:10:00;;;;;;;15.73;10.05;;;;;;;;;;5048880;28;20027;-84
2021/12/25 14:12:27;;;;;;;17.53;10.73;;;;;;;;;;5051632;28;20032;-84
2021/12/25 14:14:53;;;;;;;13.53;8.27;;;;;;;;;;5054395;28;20020;-84
2021/12/25 14:17:19;;;;;;;22.35;10.70;;;;;;;;;;5052716;28;20185;-84
2021/12/25 14:19:44;;;;;;;18.60;10.73;;;;;;;;;;5047680;28;20476;-82
2021/12/25 14:22:09;;;;;;;16.45;10.48;;;;;;;;;;5050299;28;20440;-85
2021/12/25 14:24:42;;;;;;;16.23;10.57;;;;;;;;;;5084969;28;20362;-83
2021/12/25 14:27:08;;;;;;;14.57;9.23;;;;;;;;;;5053096;28;20032;-86
2021/12/25 14:29:34;;;;;;;17.20;10.40;;;;;;;;;;5052639;28;20039;-83
2021/12/25 14:31:59;;;;;;;14.93;10.17;;;;;;;;;;5058692;28;21758;-83
2021/12/25 14:34:33;;;;;;;16.33;10.27;;;;;;;;;;5050705;28;20017;-84
2021/12/25 14:36:59;;;;;;;15.67;9.17;;;;;;;;;;5048735;28;20039;-83
2021/12/25 14:39:24;;;;;;;18.57;10.23;;;;;;;;;;5050863;28;20539;-82
2021/12/25 14:41:51;;;;;;;15.55;9.73;;;;;;;;;;5055305;28;20083;-83
2021/12/25 14:44:21;;;;;;;13.70;7.45;;;;;;;;;;5047724;28;20056;-83
2021/12/25 14:46:48;;;;;;;15.95;8.88;;;;;;;;;;5046841;28;20032;-84
2021/12/25 14:49:13;;;;;;;15.13;9.32;;;;;;;;;;5054582;28;20023;-85
2021/12/25 14:51:39;;;;;;;13.55;8.98;;;;;;;;;;5055634;28;20384;-85
2021/12/25 14:54:05;;;;;;;18.17;9.45;;;;;;;;;;5052268;28;20028;-86
2021/12/25 14:56:32;;;;;;;20.55;9.73;;;;;;;;;;5084221;28;20028;-86
2021/12/25 14:58:58;;;;;;;16.27;9.52;;;;;;;;;;5083438;28;20024;-85
2021/12/25 15:01:28;;;;;;;15.60;8.37;;;;;;;;;;5066372;28;20419;-86
2021/12/25 15:04:00;;;;;;;13.15;7.22;;;;;;;;;;5066163;28;20750;-85
2021/12/25 15:06:25;;;;;;;15.55;8.73;;;;;;;;;;5049462;28;20468;-85
2021/12/25 15:09:05;;;;;;;13.25;7.90;;;;;;;;;;5056942;28;20063;-85
2021/12/25 15:11:39;;;;;;;11.43;7.47;;;;;;;;;;5080324;28;20053;-85
2021/12/25 15:14:06;;;;;;;11.85;6.53;;;;;;;;;;5052171;28;20028;-85
2021/12/25 15:16:35;;;;;;;12.30;7.45;;;;;;;;;;5080309;28;20021;-85
2021/12/25 15:19:01;;;;;;;12.40;8.13;;;;;;;;;;5059577;28;20042;-85
2021/12/25 15:21:26;;;;;;;11.00;6.97;;;;;;;;;;5066515;28;20111;-85
2021/12/25 15:24:07;;;;;;;11.40;6.97;;;;;;;;;;5064920;28;20468;-84
2021/12/25 15:26:38;;;;;;;12.67;6.97;;;;;;;;;;5069787;28;20048;-84
2021/12/25 15:29:04;;;;;;;14.67;7.57;;;;;;;;;;5080459;28;20489;-84
2021/12/25 15:31:29;;;;;;;14.93;7.80;;;;;;;;;;5052071;28;20044;-83
2021/12/25 15:33:56;;;;;;;15.73;8.30;;;;;;;;;;5051469;28;20534;-83
2021/12/25 15:36:22;;;;;;;13.57;7.03;;;;;;;;;;5048866;28;20021;-82